Time;durP1;ratioP1;P1;durP2;ratioP2;P2;SDS_P1;SDS_P2;PMS_P1;PMS_P2;Temp;Humidity;BMP_temperature;BMP_pressure;BME280_temperature;BME280_humidity;BME280_pressure;Samples;Min_cycle;Max_cycle;Signal;HPM_P1;HPM_P2
2023/08/28 00:01:32;;;;;;;2.60;2.40;;;14.90;99.90;;;;;;5056910;28;20028;-44
2023/08/28 00:03:57;;;;;;;3.10;2.40;;;14.90;99.90;;;;;;5047089;28;20040;-44
2023/08/28 00:06:23;;;;;;;2.60;2.20;;;14.90;99.90;;;;;;5053127;28;20020;-43
2023/08/28 00:08:49;;;;;;;2.40;2.20;;;14.90;99.90;;;;;;5051011;28;20028;-43
2023/08/28 00:11:14;;;;;;;2.53;2.33;;;14.90;99.90;;;;;;5050821;28;20020;-43
2023/08/28 00:13:40;;;;;;;2.10;2.00;;;14.90;99.90;;;;;;5052514;28;20665;-42
2023/08/28 00:16:05;;;;;;;3.63;2.58;;;14.90;99.90;;;;;;5048570;28;20025;-44
2023/08/28 00:18:31;;;;;;;2.33;2.13;;;14.90;99.90;;;;;;5054986;28;20845;-43
2023/08/28 00:20:57;;;;;;;3.20;2.55;;;14.90;99.90;;;;;;5046361;28;20448;-42
2023/08/28 00:23:22;;;;;;;2.83;2.63;;;14.90;99.90;;;;;;5056931;28;20029;-42
2023/08/28 00:25:48;;;;;;;2.92;2.35;;;14.90;99.90;;;;;;5047117;28;20024;-42
2023/08/28 00:28:13;;;;;;;3.75;3.15;;;14.90;99.90;;;;;;5054019;28;20033;-42
2023/08/28 00:30:42;;;;;;;2.70;2.50;;;14.90;99.90;;;;;;5045694;28;20104;-42
2023/08/28 00:33:08;;;;;;;3.00;2.70;;;14.90;99.90;;;;;;5057463;28;20029;-42
2023/08/28 00:35:34;;;;;;;2.80;2.60;;;14.90;99.90;;;;;;5045247;28;20079;-44
2023/08/28 00:38:00;;;;;;;3.05;2.72;;;14.90;99.90;;;;;;5057627;28;20036;-43
2023/08/28 00:40:25;;;;;;;2.63;2.42;;;14.80;99.90;;;;;;5045421;28;20033;-43
2023/08/28 00:42:52;;;;;;;2.88;2.60;;;14.80;99.90;;;;;;5055066;28;20025;-42
2023/08/28 00:45:21;;;;;;;2.60;2.40;;;14.80;99.90;;;;;;5046818;28;20033;-43
2023/08/28 00:47:46;;;;;;;2.65;2.45;;;14.80;99.90;;;;;;5053528;28;20107;-43
2023/08/28 00:50:17;;;;;;;3.85;2.72;;;14.80;99.90;;;;;;5048713;28;20056;-44
2023/08/28 00:52:46;;;;;;;2.78;2.58;;;14.80;99.90;;;;;;5052141;28;20077;-43
2023/08/28 00:55:11;;;;;;;2.80;2.38;;;14.80;99.90;;;;;;5050001;28;20094;-43
2023/08/28 00:57:37;;;;;;;2.60;2.40;;;14.80;99.90;;;;;;5049450;28;20468;-43
2023/08/28 01:00:05;;;;;;;4.22;2.45;;;14.80;99.90;;;;;;5053112;28;20041;-44
2023/08/28 01:02:31;;;;;;;3.00;2.80;;;14.80;99.90;;;;;;5046550;28;20025;-43
2023/08/28 01:04:58;;;;;;;2.65;2.40;;;14.80;99.90;;;;;;5055931;28;20029;-43
2023/08/28 01:07:32;;;;;;;3.00;2.70;;;14.80;99.90;;;;;;5046170;28;20024;-43
2023/08/28 01:10:07;;;;;;;3.60;2.40;;;14.80;99.90;;;;;;5055092;28;20033;-43
2023/08/28 01:12:51;;;;;;;2.70;2.50;;;14.80;99.90;;;;;;5045710;28;20024;-43
2023/08/28 01:15:20;;;;;;;3.63;2.40;;;14.80;99.90;;;;;;5054144;28;20036;-43
2023/08/28 01:17:53;;;;;;;2.75;2.50;;;14.80;99.90;;;;;;5062280;28;20021;-42
2023/08/28 01:20:19;;;;;;;2.75;2.50;;;14.70;99.90;;;;;;5053020;28;20060;-43
2023/08/28 01:23:00;;;;;;;2.60;2.40;;;14.70;99.90;;;;;;5062452;28;20063;-42
2023/08/28 01:25:26;;;;;;;2.97;2.58;;;14.70;99.90;;;;;;5051863;28;20404;-42
2023/08/28 01:27:58;;;;;;;2.50;2.30;;;14.60;99.90;;;;;;5063178;28;20128;-42
2023/08/28 01:30:24;;;;;;;3.38;2.20;;;14.60;99.90;;;;;;5055128;28;20025;-42
2023/08/28 01:32:49;;;;;;;3.33;2.70;;;14.60;99.90;;;;;;5045027;28;20024;-42
2023/08/28 01:35:20;;;;;;;2.75;2.55;;;14.60;99.90;;;;;;5056284;28;20036;-42
2023/08/28 01:37:55;;;;;;;2.83;2.30;;;14.60;99.90;;;;;;5044524;28;20032;-42
2023/08/28 01:40:25;;;;;;;2.60;2.40;;;14.60;99.90;;;;;;5056779;28;20032;-42
2023/08/28 01:42:51;;;;;;;2.55;2.35;;;14.70;99.90;;;;;;5044832;28;20013;-42
2023/08/28 01:45:20;;;;;;;2.60;2.40;;;14.60;99.90;;;;;;5055413;28;20044;-43
2023/08/28 01:47:46;;;;;;;3.10;2.83;;;14.60;99.90;;;;;;5044270;28;20032;-42
2023/08/28 01:50:11;;;;;;;3.85;2.83;;;14.60;99.90;;;;;;5054549;28;20029;-42
2023/08/28 01:52:37;;;;;;;2.50;2.30;;;14.60;99.90;;;;;;5045051;28;20029;-42
2023/08/28 01:55:07;;;;;;;3.45;2.67;;;14.60;99.90;;;;;;5052092;28;20024;-42
2023/08/28 01:57:44;;;;;;;2.88;2.60;;;14.60;99.90;;;;;;5047939;28;20029;-43
2023/08/28 02:00:11;;;;;;;2.85;2.60;;;14.60;99.90;;;;;;5051416;28;20032;-44
2023/08/28 02:02:36;;;;;;;3.67;2.70;;;14.60;99.90;;;;;;5048495;28;20064;-43
2023/08/28 02:05:02;;;;;;;4.40;2.58;;;14.60;99.90;;;;;;5049855;28;20892;-42
2023/08/28 02:07:27;;;;;;;3.90;2.53;;;14.50;99.90;;;;;;5050348;28;20033;-42
2023/08/28 02:09:53;;;;;;;2.80;2.60;;;14.50;99.90;;;;;;5047256;28;20044;-42
2023/08/28 02:12:19;;;;;;;3.17;2.72;;;14.50;99.90;;;;;;5053182;28;20764;-42
2023/08/28 02:14:44;;;;;;;2.40;2.20;;;14.50;99.90;;;;;;5044563;28;20025;-41
2023/08/28 02:17:10;;;;;;;2.97;2.78;;;14.50;99.90;;;;;;5054613;28;20437;-43
2023/08/28 02:19:36;;;;;;;3.90;3.17;;;14.40;99.90;;;;;;5044474;28;20849;-43
2023/08/28 02:22:01;;;;;;;3.15;2.90;;;14.30;99.90;;;;;;5054624;28;20057;-42
2023/08/28 02:24:27;;;;;;;3.95;3.47;;;14.30;99.90;;;;;;5044317;28;20035;-43
2023/08/28 02:26:53;;;;;;;3.58;3.28;;;14.30;99.90;;;;;;5055833;28;20029;-42
2023/08/28 02:29:18;;;;;;;2.90;2.70;;;14.30;99.90;;;;;;5057424;28;20021;-43
2023/08/28 02:31:44;;;;;;;2.92;2.60;;;14.30;99.90;;;;;;5050622;28;20033;-43
2023/08/28 02:34:09;;;;;;;4.40;3.10;;;14.30;99.90;;;;;;5063880;28;20109;-43
2023/08/28 02:36:35;;;;;;;3.10;2.80;;;14.30;99.90;;;;;;5057917;28;20491;-43
2023/08/28 02:39:01;;;;;;;3.33;3.03;;;14.30;99.90;;;;;;5064898;28;20111;-43
2023/08/28 02:41:26;;;;;;;3.55;3.00;;;14.30;99.90;;;;;;5060016;28;20082;-41
2023/08/28 02:43:52;;;;;;;4.22;3.25;;;14.30;99.90;;;;;;5062415;28;20021;-42
2023/08/28 02:46:20;;;;;;;3.00;2.70;;;14.30;99.90;;;;;;5062022;28;20032;-42
2023/08/28 02:48:46;;;;;;;3.00;2.80;;;14.30;99.90;;;;;;5059940;28;20404;-42
2023/08/28 02:51:11;;;;;;;4.03;3.45;;;14.20;99.90;;;;;;5064685;28;20025;-42
2023/08/28 02:53:40;;;;;;;3.42;3.10;;;14.20;99.90;;;;;;5057108;28;20040;-42
2023/08/28 02:56:17;;;;;;;4.15;2.88;;;14.20;99.90;;;;;;5064182;28;20598;-43
2023/08/28 02:58:43;;;;;;;3.33;2.90;;;14.20;99.90;;;;;;5056459;28;20049;-42
2023/08/28 03:01:09;;;;;;;3.28;2.97;;;14.20;99.90;;;;;;5051515;28;20478;-43
2023/08/28 03:03:34;;;;;;;3.50;3.20;;;14.20;99.90;;;;;;5058295;28;20037;-42
2023/08/28 03:06:01;;;;;;;3.45;3.15;;;14.10;99.90;;;;;;5047336;28;20728;-43
2023/08/28 03:08:31;;;;;;;3.17;2.92;;;14.10;99.90;;;;;;5059084;28;20070;-42
2023/08/28 03:10:56;;;;;;;2.80;2.58;;;14.10;99.90;;;;;;5047276;28;20028;-42
2023/08/28 03:13:22;;;;;;;3.50;3.20;;;14.10;99.90;;;;;;5059582;28;20036;-42
2023/08/28 03:15:47;;;;;;;5.05;3.35;;;14.10;99.90;;;;;;5047160;28;20021;-42
2023/08/28 03:18:13;;;;;;;3.40;3.13;;;14.10;99.90;;;;;;5058182;28;20468;-44
2023/08/28 03:20:38;;;;;;;3.53;3.10;;;14.10;99.90;;;;;;5047649;28;20025;-43
2023/08/28 03:23:04;;;;;;;3.20;2.78;;;14.10;99.90;;;;;;5055190;28;20530;-43
2023/08/28 03:25:32;;;;;;;3.40;3.10;;;14.10;99.90;;;;;;5050372;28;20634;-43
2023/08/28 03:27:58;;;;;;;4.18;3.13;;;14.10;99.90;;;;;;5051314;28;20107;-43
2023/08/28 03:30:24;;;;;;;4.60;2.90;;;14.10;99.90;;;;;;5046496;28;20108;-43
2023/08/28 03:32:49;;;;;;;3.70;3.20;;;14.10;99.90;;;;;;5051104;28;20551;-43
2023/08/28 03:35:15;;;;;;;3.25;2.90;;;14.10;99.90;;;;;;5058853;28;20139;-43
2023/08/28 03:37:41;;;;;;;3.53;3.22;;;14.00;99.90;;;;;;5064301;28;20070;-42
2023/08/28 03:40:12;;;;;;;3.25;3.00;;;14.00;99.90;;;;;;5056164;28;20034;-43
2023/08/28 03:42:38;;;;;;;3.40;3.10;;;14.00;99.90;;;;;;5065115;28;20526;-43
2023/08/28 03:45:03;;;;;;;3.53;3.22;;;14.00;99.90;;;;;;5054109;28;20016;-43
2023/08/28 03:47:32;;;;;;;3.53;3.20;;;14.00;99.90;;;;;;5065226;28;20764;-42
2023/08/28 03:49:57;;;;;;;3.17;2.95;;;14.00;99.90;;;;;;5057715;28;20028;-42
2023/08/28 03:52:26;;;;;;;3.42;3.13;;;14.00;99.90;;;;;;5045864;28;20128;-42
2023/08/28 03:54:51;;;;;;;3.88;3.58;;;14.00;99.90;;;;;;5058242;28;20032;-42
2023/08/28 03:57:17;;;;;;;3.58;3.13;;;14.00;99.90;;;;;;5045706;28;20029;-42
2023/08/28 03:59:43;;;;;;;4.13;3.67;;;14.00;99.90;;;;;;5057966;28;20056;-42
2023/08/28 04:02:09;;;;;;;3.47;3.00;;;14.00;99.90;;;;;;5045992;28;20033;-42
2023/08/28 04:04:34;;;;;;;3.15;2.90;;;14.00;99.90;;;;;;5056796;28;20048;-42
2023/08/28 04:07:22;;;;;;;3.33;3.03;;;14.00;99.90;;;;;;5046991;28;20128;-43
2023/08/28 04:09:48;;;;;;;3.53;3.22;;;14.00;99.90;;;;;;5057190;28;20512;-43
2023/08/28 04:12:13;;;;;;;3.63;3.33;;;13.90;99.90;;;;;;5047329;28;20024;-43
2023/08/28 04:14:39;;;;;;;4.32;4.03;;;13.90;99.90;;;;;;5054325;28;20020;-43
2023/08/28 04:17:05;;;;;;;4.03;3.72;;;14.00;99.90;;;;;;5050251;28;20060;-43
2023/08/28 04:19:30;;;;;;;4.05;3.75;;;13.90;99.90;;;;;;5051360;28;20464;-43
2023/08/28 04:21:56;;;;;;;4.72;3.72;;;14.00;99.90;;;;;;5052344;28;20017;-43
2023/08/28 04:24:21;;;;;;;4.80;4.32;;;14.00;99.90;;;;;;5048311;28;20685;-43
2023/08/28 04:26:47;;;;;;;4.72;3.95;;;14.00;99.90;;;;;;5055311;28;20033;-43
2023/08/28 04:29:12;;;;;;;4.22;3.50;;;14.00;99.90;;;;;;5055780;28;20021;-43
2023/08/28 04:31:38;;;;;;;4.38;3.92;;;14.00;99.90;;;;;;5054915;28;20470;-43
2023/08/28 04:34:03;;;;;;;4.15;3.75;;;14.00;99.90;;;;;;5063781;28;20417;-43
2023/08/28 04:36:29;;;;;;;4.07;3.75;;;14.00;99.90;;;;;;5054187;28;20047;-43
2023/08/28 04:38:55;;;;;;;4.35;3.95;;;14.10;99.90;;;;;;5066059;28;20462;-43
2023/08/28 04:41:20;;;;;;;4.43;3.95;;;14.10;99.90;;;;;;5051927;28;20020;-43
2023/08/28 04:43:49;;;;;;;7.05;4.40;;;14.10;99.90;;;;;;5065760;28;20067;-43
2023/08/28 04:46:17;;;;;;;4.28;3.88;;;14.20;99.90;;;;;;5051664;28;20548;-43
2023/08/28 04:48:42;;;;;;;4.68;4.28;;;14.20;99.90;;;;;;5064846;28;20029;-43
2023/08/28 04:51:08;;;;;;;3.85;3.55;;;14.20;99.90;;;;;;5054438;28;20029;-43
2023/08/28 04:53:33;;;;;;;4.03;3.72;;;14.20;99.90;;;;;;5063660;28;20127;-43
2023/08/28 04:55:59;;;;;;;4.30;3.90;;;14.20;99.90;;;;;;5056546;28;20033;-43
2023/08/28 04:58:25;;;;;;;3.95;3.65;;;14.20;99.90;;;;;;5060168;28;20574;-43
2023/08/28 05:00:53;;;;;;;3.30;3.05;;;14.30;99.90;;;;;;5059865;28;20028;-43
2023/08/28 05:03:19;;;;;;;4.22;3.80;;;14.20;99.90;;;;;;5057020;28;20017;-42
2023/08/28 05:05:44;;;;;;;3.67;3.38;;;14.10;99.90;;;;;;5062405;28;20035;-43
2023/08/28 05:08:10;;;;;;;4.03;3.65;;;14.10;99.90;;;;;;5055274;28;20427;-42
2023/08/28 05:10:35;;;;;;;3.97;3.58;;;14.00;99.90;;;;;;5062090;28;20025;-42
2023/08/28 05:13:01;;;;;;;6.13;3.92;;;14.00;99.90;;;;;;5053540;28;20085;-42
2023/08/28 05:15:26;;;;;;;4.25;3.85;;;14.00;99.90;;;;;;5062771;28;20036;-42
2023/08/28 05:17:52;;;;;;;4.97;4.55;;;14.00;99.90;;;;;;5056251;28;20103;-43
2023/08/28 05:20:17;;;;;;;4.82;4.32;;;14.00;99.90;;;;;;5044941;28;20101;-42
2023/08/28 05:22:47;;;;;;;4.53;4.13;;;14.10;99.90;;;;;;5056575;28;20837;-42
2023/08/28 05:25:15;;;;;;;4.43;4.03;;;14.20;99.90;;;;;;5044708;28;20083;-42
2023/08/28 05:27:43;;;;;;;5.05;4.55;;;14.20;99.90;;;;;;5057437;28;20052;-42
2023/08/28 05:30:09;;;;;;;4.70;4.30;;;14.30;99.90;;;;;;5062344;28;20140;-42
2023/08/28 05:32:44;;;;;;;4.57;4.20;;;14.30;99.90;;;;;;5055625;28;20077;-42
2023/08/28 05:35:10;;;;;;;4.47;4.07;;;14.40;99.90;;;;;;5043990;28;20037;-42
2023/08/28 05:37:36;;;;;;;4.78;3.92;;;14.40;99.90;;;;;;5053615;28;20036;-42
2023/08/28 05:40:01;;;;;;;4.30;3.90;;;14.50;99.90;;;;;;5044929;28;20024;-42
2023/08/28 05:42:27;;;;;;;4.40;4.03;;;14.50;99.90;;;;;;5050730;28;20046;-42
2023/08/28 05:44:52;;;;;;;5.68;3.90;;;14.60;99.90;;;;;;5048419;28;20021;-42
2023/08/28 05:47:18;;;;;;;4.55;4.15;;;14.60;99.90;;;;;;5047672;28;20062;-42
2023/08/28 05:49:44;;;;;;;4.40;4.10;;;14.70;99.90;;;;;;5051942;28;20059;-42
2023/08/28 05:52:09;;;;;;;4.50;4.20;;;14.80;99.90;;;;;;5044951;28;20473;-43
2023/08/28 05:54:35;;;;;;;4.80;4.40;;;14.80;99.90;;;;;;5054355;28;20118;-46
2023/08/28 05:57:02;;;;;;;8.27;4.50;;;14.90;99.90;;;;;;5044568;28;20044;-43
2023/08/28 05:59:28;;;;;;;4.65;4.15;;;14.90;99.90;;;;;;5054025;28;20107;-43
2023/08/28 06:01:53;;;;;;;4.63;4.22;;;15.00;99.90;;;;;;5044244;28;20515;-43
2023/08/28 06:04:19;;;;;;;4.28;3.88;;;15.00;99.90;;;;;;5054911;28;20047;-42
2023/08/28 06:06:44;;;;;;;4.80;4.30;;;15.00;99.90;;;;;;5043407;28;20025;-42
2023/08/28 06:09:10;;;;;;;4.55;4.15;;;15.10;99.90;;;;;;5057415;28;20064;-42
2023/08/28 06:11:35;;;;;;;3.88;3.58;;;15.10;99.90;;;;;;5050542;28;20048;-42
2023/08/28 06:14:01;;;;;;;4.13;3.72;;;15.10;99.90;;;;;;5060393;28;20153;-43
2023/08/28 06:16:27;;;;;;;4.75;4.32;;;15.10;99.90;;;;;;5051724;28;20121;-43
2023/08/28 06:18:53;;;;;;;4.30;3.90;;;15.20;99.90;;;;;;5057893;28;20103;-43
2023/08/28 06:21:18;;;;;;;5.45;4.18;;;15.20;99.90;;;;;;5052970;28;20132;-43
2023/08/28 06:23:44;;;;;;;5.57;4.57;;;15.20;99.90;;;;;;5056064;28;20078;-43
2023/08/28 06:26:10;;;;;;;5.40;4.90;;;15.30;99.90;;;;;;5054763;28;20328;-43
2023/08/28 06:28:35;;;;;;;5.50;5.00;;;15.30;99.90;;;;;;5056050;28;20054;-43
2023/08/28 06:31:04;;;;;;;5.07;4.68;;;15.30;99.90;;;;;;5055146;28;20032;-43
2023/08/28 06:33:29;;;;;;;5.00;4.60;;;15.40;99.90;;;;;;5050214;28;20037;-43
2023/08/28 06:35:55;;;;;;;4.90;4.50;;;15.50;99.90;;;;;;5061088;28;20025;-43
2023/08/28 06:38:42;;;;;;;5.15;4.65;;;15.50;99.90;;;;;;5049593;28;20040;-43
2023/08/28 06:41:07;;;;;;;5.07;4.60;;;15.50;99.90;;;;;;5057284;28;20526;-43
2023/08/28 06:43:33;;;;;;;5.25;4.75;;;15.60;99.90;;;;;;5069481;28;20036;-43
2023/08/28 06:45:59;;;;;;;5.93;5.20;;;15.70;99.90;;;;;;5058987;28;20408;-44
2023/08/28 06:48:30;;;;;;;5.00;4.50;;;15.70;99.90;;;;;;5068719;28;20028;-43
2023/08/28 06:50:57;;;;;;;5.67;5.10;;;15.80;99.90;;;;;;5058479;28;20023;-43
2023/08/28 06:53:25;;;;;;;6.05;5.55;;;15.80;99.90;;;;;;5070367;28;20861;-43
2023/08/28 06:55:51;;;;;;;6.05;5.45;;;15.90;99.90;;;;;;5056970;28;20029;-43
2023/08/28 06:58:16;;;;;;;6.38;5.78;;;15.90;99.90;;;;;;5069173;28;20059;-43
2023/08/28 07:00:42;;;;;;;5.85;5.35;;;16.00;99.90;;;;;;5057245;28;20025;-42
2023/08/28 07:03:09;;;;;;;6.15;5.53;;;16.10;99.90;;;;;;5069140;28;20029;-43
2023/08/28 07:05:34;;;;;;;6.90;5.38;;;16.20;99.90;;;;;;5059552;28;20798;-42
2023/08/28 07:08:00;;;;;;;5.03;4.55;;;16.20;99.90;;;;;;5066568;28;20029;-43
2023/08/28 07:10:26;;;;;;;5.65;5.15;;;16.30;99.90;;;;;;5063043;28;20032;-43
2023/08/28 07:12:52;;;;;;;5.75;5.15;;;16.40;99.90;;;;;;5064797;28;20070;-41
2023/08/28 07:15:20;;;;;;;5.28;4.78;;;16.50;99.90;;;;;;5064073;28;20828;-41
2023/08/28 07:17:45;;;;;;;5.30;4.80;;;16.50;99.90;;;;;;5063221;28;20420;-42
2023/08/28 07:20:11;;;;;;;5.90;4.45;;;16.60;99.90;;;;;;5066399;28;20486;-41
2023/08/28 07:22:37;;;;;;;4.93;4.50;;;16.60;99.90;;;;;;5056573;28;20105;-42
2023/08/28 07:25:03;;;;;;;4.30;3.90;;;16.70;99.90;;;;;;5065332;28;20032;-42
2023/08/28 07:27:29;;;;;;;5.18;4.65;;;16.70;99.90;;;;;;5055706;28;20600;-43
2023/08/28 07:29:55;;;;;;;6.57;4.70;;;16.80;99.90;;;;;;5052396;28;20029;-42
2023/08/28 07:32:20;;;;;;;5.32;4.82;;;16.90;99.90;;;;;;5057361;28;20060;-43
2023/08/28 07:34:52;;;;;;;5.00;4.38;;;16.90;99.90;;;;;;5046922;28;20134;-42
2023/08/28 07:37:17;;;;;;;5.40;4.90;;;16.90;99.90;;;;;;5058100;28;20036;-42
2023/08/28 07:39:43;;;;;;;5.30;4.60;;;16.90;99.90;;;;;;5046755;28;20802;-43
2023/08/28 07:42:11;;;;;;;4.68;4.13;;;16.80;99.90;;;;;;5058296;28;20076;-43
2023/08/28 07:44:37;;;;;;;4.75;4.35;;;16.80;99.90;;;;;;5046773;28;20068;-42
2023/08/28 07:47:03;;;;;;;5.05;4.55;;;16.80;99.90;;;;;;5056856;28;20107;-42
2023/08/28 07:49:28;;;;;;;4.97;4.45;;;16.80;99.90;;;;;;5048143;28;20120;-42
2023/08/28 07:51:54;;;;;;;6.07;4.93;;;16.80;99.90;;;;;;5054529;28;20020;-43
2023/08/28 07:54:20;;;;;;;5.28;4.70;;;16.90;99.90;;;;;;5050070;28;20347;-42
2023/08/28 07:56:45;;;;;;;5.35;4.70;;;16.90;99.90;;;;;;5051826;28;20476;-42
2023/08/28 07:59:11;;;;;;;4.80;4.40;;;16.90;99.90;;;;;;5051944;28;20044;-43
2023/08/28 08:01:38;;;;;;;5.32;4.82;;;17.00;99.90;;;;;;5049183;28;20025;-43
2023/08/28 08:04:03;;;;;;;4.53;4.10;;;17.10;99.90;;;;;;5055200;28;20028;-43
2023/08/28 08:06:29;;;;;;;4.85;4.45;;;17.10;99.90;;;;;;5047103;28;20083;-43
2023/08/28 08:08:55;;;;;;;5.75;5.15;;;17.20;99.90;;;;;;5057554;28;20586;-44
2023/08/28 08:11:20;;;;;;;5.70;5.13;;;17.20;99.90;;;;;;5046792;28;20179;-43
2023/08/28 08:13:46;;;;;;;5.30;4.78;;;17.10;99.90;;;;;;5056541;28;20110;-43
2023/08/28 08:16:11;;;;;;;5.72;5.22;;;17.10;99.90;;;;;;5045665;28;20031;-43
2023/08/28 08:18:40;;;;;;;5.47;4.97;;;17.10;99.90;;;;;;5054896;28;20025;-43
2023/08/28 08:21:06;;;;;;;5.15;4.22;;;17.10;99.90;;;;;;5065767;28;20044;-41
2023/08/28 08:23:31;;;;;;;4.40;4.00;;;17.20;99.90;;;;;;5053100;28;20028;-42
2023/08/28 08:25:58;;;;;;;6.47;4.50;;;17.20;99.90;;;;;;5064477;28;20052;-42
2023/08/28 08:28:23;;;;;;;4.53;4.13;;;17.20;99.90;;;;;;5058463;28;20044;-42
2023/08/28 08:30:49;;;;;;;4.63;3.70;;;17.20;99.90;;;;;;5066303;28;20791;-42
2023/08/28 08:33:15;;;;;;;4.05;3.65;;;17.30;99.90;;;;;;5055673;28;20037;-42
2023/08/28 08:35:40;;;;;;;4.80;4.00;;;17.30;99.90;;;;;;5061440;28;20055;-43
2023/08/28 08:38:06;;;;;;;4.50;3.85;;;17.40;99.90;;;;;;5059468;28;20105;-42
2023/08/28 08:40:34;;;;;;;4.57;4.03;;;17.40;99.90;;;;;;5057285;28;20048;-42
2023/08/28 08:42:59;;;;;;;4.75;3.72;;;17.50;99.90;;;;;;5061437;28;20044;-43
2023/08/28 08:45:36;;;;;;;3.83;3.53;;;17.60;99.90;;;;;;5056428;28;20894;-43
2023/08/28 08:48:05;;;;;;;3.42;3.13;;;17.70;99.90;;;;;;5062394;28;20044;-43
2023/08/28 08:50:34;;;;;;;3.70;3.20;;;17.90;99.90;;;;;;5055462;28;20021;-43
2023/08/28 08:53:05;;;;;;;2.90;2.70;;;18.00;99.90;;;;;;5062744;28;20065;-43
2023/08/28 08:55:34;;;;;;;2.70;2.50;;;18.00;99.90;;;;;;5053601;28;20032;-43
2023/08/28 08:58:04;;;;;;;2.70;2.40;;;18.00;99.90;;;;;;5063409;28;20079;-42
2023/08/28 09:00:31;;;;;;;2.97;2.40;;;18.00;99.90;;;;;;5053379;28;20495;-43
2023/08/28 09:02:56;;;;;;;2.30;2.10;;;18.00;99.90;;;;;;5064468;28;20078;-43
2023/08/28 09:05:25;;;;;;;3.25;2.95;;;18.00;99.90;;;;;;5053786;28;20033;-42
2023/08/28 09:07:52;;;;;;;2.72;2.15;;;18.10;99.90;;;;;;5065022;28;20154;-43
2023/08/28 09:10:18;;;;;;;2.50;1.98;;;18.20;99.90;;;;;;5052360;28;20029;-42
2023/08/28 09:12:46;;;;;;;1.70;1.60;;;18.20;99.90;;;;;;5065799;28;20027;-43
2023/08/28 09:15:11;;;;;;;2.20;1.70;;;18.30;99.90;;;;;;5051067;28;20056;-43
2023/08/28 09:17:39;;;;;;;1.83;1.50;;;18.40;99.90;;;;;;5045232;28;20642;-43
2023/08/28 09:20:14;;;;;;;2.72;1.58;;;18.30;99.90;;;;;;5047882;28;20415;-43
2023/08/28 09:22:53;;;;;;;1.50;1.10;;;18.40;99.90;;;;;;5063450;28;20111;-43
2023/08/28 09:25:21;;;;;;;1.10;1.10;;;18.40;99.90;;;;;;5053742;28;20387;-43
2023/08/28 09:27:49;;;;;;;2.65;1.20;;;18.50;99.90;;;;;;5063569;28;20032;-44
2023/08/28 09:30:32;;;;;;;1.10;1.00;;;18.40;99.90;;;;;;5054612;28;20021;-43
2023/08/28 09:32:59;;;;;;;1.25;0.77;;;18.50;99.90;;;;;;5046472;28;20456;-43
2023/08/28 09:35:27;;;;;;;1.48;0.82;;;18.60;99.90;;;;;;5053700;28;20033;-44
2023/08/28 09:38:16;;;;;;;0.88;0.75;;;18.60;99.90;;;;;;5046420;28;20029;-43
2023/08/28 09:40:42;;;;;;;1.92;0.90;;;18.70;99.90;;;;;;5043884;28;20583;-43
2023/08/28 09:43:18;;;;;;;0.68;0.68;;;18.80;99.90;;;;;;5043755;28;20672;-43
2023/08/28 09:45:45;;;;;;;0.90;0.70;;;18.80;99.90;;;;;;5050645;28;20028;-43
2023/08/28 09:48:11;;;;;;;0.80;0.77;;;19.00;99.90;;;;;;5046977;28;20684;-43
2023/08/28 09:50:41;;;;;;;0.60;0.50;;;19.00;99.90;;;;;;5047774;28;20024;-43
2023/08/28 09:53:11;;;;;;;0.93;0.85;;;19.20;99.90;;;;;;5049181;28;20025;-43
2023/08/28 09:55:38;;;;;;;0.60;0.60;;;19.40;99.90;;;;;;5049380;28;20024;-43
2023/08/28 09:58:11;;;;;;;0.90;0.80;;;19.50;99.90;;;;;;5050718;28;20799;-43
2023/08/28 10:00:39;;;;;;;;;;;19.60;99.90;;;;;;5048345;28;20100;-43
2023/08/28 10:03:12;;;;;;;0.55;0.50;;;19.70;99.90;;;;;;5052822;28;19909;-43
2023/08/28 10:05:39;;;;;;;0.75;0.75;;;19.60;99.90;;;;;;5045432;28;20029;-43
2023/08/28 10:08:07;;;;;;;0.98;0.85;;;19.60;99.90;;;;;;5053532;28;20342;-43
2023/08/28 10:10:34;;;;;;;0.65;0.65;;;19.50;99.90;;;;;;5045864;28;20098;-42
2023/08/28 10:13:05;;;;;;;1.13;0.73;;;19.40;99.90;;;;;;5054376;28;20074;-43
2023/08/28 10:15:41;;;;;;;1.00;0.82;;;19.40;99.90;;;;;;5045739;28;20118;-42
2023/08/28 10:18:17;;;;;;;1.95;0.80;;;19.30;99.90;;;;;;5054361;28;20017;-43
2023/08/28 10:20:44;;;;;;;0.82;0.80;;;19.30;99.90;;;;;;5045770;28;20033;-42
2023/08/28 10:23:12;;;;;;;0.50;0.50;;;19.20;99.90;;;;;;5054690;28;20036;-43
2023/08/28 10:25:39;;;;;;;2.45;0.70;;;19.20;99.90;;;;;;5043884;28;20037;-42
2023/08/28 10:28:06;;;;;;;0.40;0.40;;;19.30;99.90;;;;;;5042925;28;20029;-43
2023/08/28 10:30:34;;;;;;;0.68;0.40;;;19.40;99.90;;;;;;5044452;28;20017;-42
2023/08/28 10:33:01;;;;;;;0.45;0.45;;;19.50;99.90;;;;;;5048993;28;20098;-42
2023/08/28 10:35:28;;;;;;;0.60;0.60;;;19.60;99.90;;;;;;5064180;28;20032;-43
2023/08/28 10:37:55;;;;;;;0.40;0.40;;;19.60;99.90;;;;;;5051714;28;20082;-45
2023/08/28 10:40:21;;;;;;;0.70;0.50;;;19.70;99.90;;;;;;5062646;28;20025;-42
2023/08/28 10:42:48;;;;;;;0.93;0.50;;;19.90;99.90;;;;;;5053919;28;20523;-43
2023/08/28 10:45:14;;;;;;;0.57;0.50;;;19.90;99.90;;;;;;5061134;28;20028;-42
2023/08/28 10:47:39;;;;;;;0.63;0.60;;;20.00;99.90;;;;;;5056371;28;20051;-43
2023/08/28 10:50:14;;;;;;;0.60;0.60;;;20.10;99.90;;;;;;5058457;28;20038;-43
2023/08/28 10:52:40;;;;;;;1.02;0.77;;;20.20;99.90;;;;;;5057739;28;20017;-43
2023/08/28 10:55:09;;;;;;;1.00;0.88;;;20.20;99.90;;;;;;5057164;28;20042;-43
2023/08/28 10:57:40;;;;;;;0.90;0.70;;;20.30;99.90;;;;;;5063865;28;20025;-43
2023/08/28 11:00:17;;;;;;;1.20;0.80;;;20.30;99.90;;;;;;5058561;28;20048;-43
2023/08/28 11:03:09;;;;;;;1.05;0.70;;;20.30;99.90;;;;;;5064649;28;20345;-43
2023/08/28 11:05:38;;;;;;;0.70;0.60;;;20.30;99.90;;;;;;5062393;28;20020;-43
2023/08/28 11:08:06;;;;;;;0.40;0.40;;;20.30;99.90;;;;;;5061109;28;20272;-43
2023/08/28 11:10:32;;;;;;;0.70;0.70;;;20.40;99.90;;;;;;5060751;28;20016;-43
2023/08/28 11:13:05;;;;;;;0.82;0.80;;;20.40;99.90;;;;;;5064292;28;20544;-43
2023/08/28 11:15:38;;;;;;;0.57;0.57;;;20.50;99.90;;;;;;5057246;28;20056;-42
2023/08/28 11:18:13;;;;;;;0.50;0.50;;;20.50;99.90;;;;;;5064826;28;20249;-43
2023/08/28 11:20:38;;;;;;;0.77;0.57;;;20.60;99.90;;;;;;5058009;28;20035;-43
2023/08/28 11:23:04;;;;;;;1.55;0.75;;;20.70;99.90;;;;;;5064544;28;20017;-43
2023/08/28 11:25:39;;;;;;;1.00;0.80;;;20.70;99.90;;;;;;5056025;28;20646;-42
2023/08/28 11:28:29;;;;;;;0.65;0.60;;;20.70;99.90;;;;;;5064536;28;20029;-43
2023/08/28 11:31:03;;;;;;;0.77;0.60;;;20.70;99.90;;;;;;5046572;28;20477;-43
2023/08/28 11:33:40;;;;;;;2.25;0.70;;;20.70;99.90;;;;;;5046800;28;20023;-42
2023/08/28 11:36:08;;;;;;;0.50;0.50;;;20.70;99.90;;;;;;5045628;28;20031;-43
2023/08/28 11:38:34;;;;;;;0.70;0.70;;;20.70;99.90;;;;;;5050021;28;20016;-44
2023/08/28 11:41:08;;;;;;;0.80;0.70;;;20.70;99.90;;;;;;5055554;28;20035;-44
2023/08/28 11:43:41;;;;;;;1.42;0.60;;;20.60;99.90;;;;;;5065413;28;20024;-44
2023/08/28 11:46:08;;;;;;;1.20;0.65;;;20.50;99.90;;;;;;5054836;28;20483;-44
2023/08/28 11:48:43;;;;;;;0.82;0.68;;;20.50;99.90;;;;;;5065437;28;20475;-44
2023/08/28 11:51:10;;;;;;;0.60;0.50;;;20.40;99.90;;;;;;5054114;28;20029;-43
2023/08/28 11:53:45;;;;;;;1.17;0.40;;;20.30;99.90;;;;;;5065436;28;20052;-42
2023/08/28 11:56:12;;;;;;;0.52;0.40;;;20.30;99.90;;;;;;5047010;28;20020;-42
2023/08/28 11:58:43;;;;;;;1.75;0.40;;;20.20;99.90;;;;;;5045994;28;20462;-42
2023/08/28 12:01:08;;;;;;;2.60;0.55;;;20.30;99.90;;;;;;5052419;28;20067;-43
2023/08/28 12:03:37;;;;;;;0.50;0.40;;;20.30;99.90;;;;;;5065823;28;20040;-44
2023/08/28 12:06:07;;;;;;;1.45;0.68;;;20.30;99.90;;;;;;5052200;28;20044;-43
2023/08/28 12:08:38;;;;;;;2.45;1.05;;;20.30;99.90;;;;;;5064907;28;20388;-44
2023/08/28 12:11:13;;;;;;;0.77;0.75;;;20.30;99.90;;;;;;5051724;28;20044;-42
2023/08/28 12:13:39;;;;;;;2.10;0.80;;;20.40;99.90;;;;;;5066288;28;20045;-42
2023/08/28 12:16:17;;;;;;;1.05;0.63;;;20.40;99.90;;;;;;5053454;28;20020;-42
2023/08/28 12:18:53;;;;;;;1.00;0.60;;;20.50;99.90;;;;;;5045572;28;20021;-43
2023/08/28 12:21:36;;;;;;;0.60;0.55;;;20.60;99.90;;;;;;5048793;28;20033;-42
2023/08/28 12:24:02;;;;;;;1.33;0.65;;;20.70;99.90;;;;;;5045513;28;20114;-42
2023/08/28 12:26:30;;;;;;;0.45;0.40;;;20.80;99.90;;;;;;5056726;28;20040;-43
2023/08/28 12:28:56;;;;;;;0.55;0.50;;;20.90;99.90;;;;;;5050410;28;20028;-43
2023/08/28 12:31:32;;;;;;;0.55;0.52;;;21.00;99.90;;;;;;5056221;28;20037;-43
2023/08/28 12:34:06;;;;;;;0.75;0.60;;;21.10;99.90;;;;;;5064188;28;20443;-43
2023/08/28 12:36:46;;;;;;;1.23;0.50;;;21.10;99.90;;;;;;5056197;28;20021;-44
2023/08/28 12:39:16;;;;;;;0.60;0.45;;;21.10;99.90;;;;;;5059559;28;20624;-43
2023/08/28 12:41:53;;;;;;;0.40;0.40;;;21.20;99.90;;;;;;5054397;28;20472;-43
2023/08/28 12:44:20;;;;;;;0.40;0.40;;;21.30;99.90;;;;;;5046430;28;20039;-43
2023/08/28 12:46:46;;;;;;;0.93;0.50;;;21.30;99.90;;;;;;5053399;28;20074;-43
2023/08/28 12:49:18;;;;;;;0.60;0.38;;;21.40;99.90;;;;;;5048438;28;20447;-44
2023/08/28 12:51:44;;;;;;;1.20;0.43;;;21.40;99.90;;;;;;5052247;28;20013;-43